Time;durP1;ratioP1;P1;durP2;ratioP2;P2;SDS_P1;SDS_P2;PMS_P1;PMS_P2;Temp;Humidity;BMP_temperature;BMP_pressure;BME280_temperature;BME280_humidity;BME280_pressure;Samples;Min_cycle;Max_cycle;Signal;HPM_P1;HPM_P2
2021/07/14 00:01:21;;;;;;;15.70;11.02;;;;;;;22.62;62.39;99805.56;5113658;28;20036;-73
2021/07/14 00:03:47;;;;;;;16.13;11.50;;;;;;;22.61;62.40;99806.59;5095726;28;20043;-74
2021/07/14 00:06:12;;;;;;;16.00;10.82;;;;;;;22.58;62.46;99806.97;5114054;28;20480;-77
2021/07/14 00:08:39;;;;;;;21.52;11.30;;;;;;;22.56;62.61;99811.75;5113709;28;20476;-74
2021/07/14 00:11:05;;;;;;;15.73;10.85;;;;;;;22.54;62.36;99816.47;5114025;28;20039;-76
2021/07/14 00:13:35;;;;;;;12.88;10.52;;;;;;;22.52;62.48;99816.69;5113378;28;20039;-74
2021/07/14 00:24:15;;;;;;;16.05;10.35;;;;;;;22.17;66.13;99818.34;5113292;28;20040;-73
2021/07/14 00:26:40;;;;;;;18.42;10.50;;;;;;;22.13;66.26;99816.06;5113344;28;20047;-73
2021/07/14 00:29:11;;;;;;;16.83;10.52;;;;;;;22.13;66.40;99813.38;5113865;28;20054;-75
2021/07/14 00:31:39;;;;;;;13.77;10.68;;;;;;;22.16;65.65;99811.28;5113206;28;20043;-74
2021/07/14 00:34:05;;;;;;;16.20;12.18;;;;;;;22.19;64.88;99811.75;5113549;28;20122;-72
2021/07/14 00:36:31;;;;;;;17.67;11.20;;;;;;;22.23;64.46;99809.50;5113314;28;20046;-72
2021/07/14 00:38:57;;;;;;;22.05;12.15;;;;;;;22.26;64.11;99811.84;5094948;28;20039;-72
2021/07/14 00:41:23;;;;;;;19.05;11.88;;;;;;;22.27;63.98;99822.41;5094901;28;20085;-74
2021/07/14 00:43:48;;;;;;;18.10;11.85;;;;;;;22.25;64.14;99820.94;5113288;28;20040;-72
2021/07/14 00:46:20;;;;;;;20.05;11.43;;;;;;;22.21;64.33;99814.28;5094963;28;20126;-74
2021/07/14 00:48:48;;;;;;;16.08;11.57;;;;;;;22.13;65.01;99813.38;5113149;28;20051;-71
2021/07/14 00:51:13;;;;;;;;;;;;;;;22.07;65.04;99819.50;5113401;28;20043;-73
2021/07/14 00:53:41;;;;;;;18.65;11.48;;;;;;;22.04;65.42;99819.88;5112958;28;20015;-76
2021/07/14 00:56:06;;;;;;;15.45;11.35;;;;;;;22.01;65.71;99814.88;5094738;28;20065;-74
2021/07/14 00:58:33;;;;;;;17.25;12.35;;;;;;;21.96;65.75;99822.69;5112832;28;20126;-73
2021/07/14 01:01:00;;;;;;;17.88;11.57;;;;;;;21.95;65.73;99816.47;5113181;28;20126;-73
2021/07/14 01:03:26;;;;;;;18.10;11.00;;;;;;;21.94;65.75;99813.97;5112326;28;20518;-72
2021/07/14 01:05:54;;;;;;;18.23;10.87;;;;;;;21.93;65.67;99818.53;5077551;28;20046;-72
2021/07/14 01:08:43;;;;;;;16.83;10.88;;;;;;;21.93;65.98;99817.69;5112398;28;20063;-72
2021/07/14 01:11:14;;;;;;;16.73;10.77;;;;;;;21.90;66.05;99823.47;5094519;28;20104;-73
2021/07/14 01:14:05;;;;;;;20.48;11.30;;;;;;;21.88;67.15;99817.41;5094563;28;20555;-72
2021/07/14 01:16:43;;;;;;;19.85;12.45;;;;;;;21.87;66.16;99818.44;5097358;28;20419;-74
2021/07/14 01:19:50;;;;;;;18.38;12.52;;;;;;;21.88;65.82;99812.03;5094503;28;20035;-71
2021/07/14 01:22:50;;;;;;;21.42;12.73;;;;;;;21.91;65.36;99814.34;5111627;28;20090;-75
2021/07/14 01:25:29;;;;;;;17.35;12.75;;;;;;;21.93;65.06;99813.16;5112490;28;20500;-71
2021/07/14 01:27:58;;;;;;;37.22;14.85;;;;;;;21.90;67.11;99818.91;5112551;28;20407;-71
2021/07/14 01:30:23;;;;;;;23.90;12.23;;;;;;;21.74;68.26;99817.25;5093962;28;20453;-71
2021/07/14 01:32:51;;;;;;;18.42;11.68;;;;;;;21.63;68.75;99818.56;5094350;28;20468;-71
2021/07/14 01:35:18;;;;;;;;;;;;;;;21.59;69.00;99816.44;5094518;28;20121;-71
2021/07/14 01:37:45;;;;;;;17.47;10.80;;;;;;;21.58;68.54;99810.22;5094036;28;19915;-72
2021/07/14 01:40:12;;;;;;;19.42;11.18;;;;;;;21.59;69.08;99821.81;5112397;28;20039;-72
2021/07/14 01:42:40;;;;;;;18.27;11.88;;;;;;;21.54;68.56;99816.13;5112178;28;20050;-71
2021/07/14 01:45:06;;;;;;;19.25;11.57;;;;;;;21.45;68.86;99821.59;5112162;28;20078;-72
2021/07/14 01:47:36;;;;;;;14.30;11.05;;;;;;;21.38;69.29;99814.47;5111768;28;20373;-72
2021/07/14 01:50:04;;;;;;;17.77;10.68;;;;;;;21.37;69.09;99821.72;5094360;28;20051;-73
2021/07/14 01:52:31;;;;;;;22.38;12.27;;;;;;;21.34;69.42;99824.75;5112198;28;20053;-73
2021/07/14 01:54:58;;;;;;;16.77;11.73;;;;;;;21.34;69.04;99824.75;5094055;28;20050;-72
2021/07/14 01:57:27;;;;;;;17.35;11.57;;;;;;;21.39;68.93;99819.66;5077338;28;20131;-72
2021/07/14 01:59:53;;;;;;;18.70;11.30;;;;;;;21.44;68.83;99821.78;5093795;28;20040;-72
2021/07/14 02:02:21;;;;;;;20.63;11.88;;;;;;;21.49;68.76;99822.91;5090343;28;20044;-72
2021/07/14 02:04:47;;;;;;;17.00;12.23;;;;;;;21.57;68.33;99823.84;5076662;28;20066;-72
2021/07/14 02:07:24;;;;;;;18.33;11.40;;;;;;;21.57;69.15;99819.31;5093424;28;20047;-73
2021/07/14 02:09:50;;;;;;;19.38;11.93;;;;;;;21.54;69.49;99826.91;5112205;28;20043;-72
2021/07/14 02:12:25;;;;;;;18.50;11.60;;;;;;;21.56;69.67;99827.56;5111965;28;20047;-71
2021/07/14 02:14:57;;;;;;;16.60;12.15;;;;;;;21.58;69.70;99826.38;5093665;28;20495;-74
2021/07/14 02:17:26;;;;;;;19.90;11.68;;;;;;;21.58;69.03;99825.53;5111537;28;20051;-73
2021/07/14 02:19:54;;;;;;;20.17;12.23;;;;;;;21.62;68.68;99826.81;5093812;28;20412;-72
2021/07/14 02:22:20;;;;;;;18.50;12.43;;;;;;;21.67;68.80;99824.44;5094044;28;20103;-71
2021/07/14 02:24:46;;;;;;;16.52;12.02;;;;;;;21.69;68.45;99811.59;5111484;28;20040;-72
2021/07/14 02:27:12;;;;;;;17.85;11.90;;;;;;;21.74;68.69;99813.72;5112018;28;20381;-75
2021/07/14 02:29:39;;;;;;;21.33;11.35;;;;;;;21.72;68.91;99816.63;5111743;28;20529;-72
2021/07/14 02:32:12;;;;;;;18.67;11.75;;;;;;;21.79;68.86;99820.25;5093424;28;20043;-73
2021/07/14 02:34:38;;;;;;;19.88;12.23;;;;;;;21.87;68.13;99818.44;5111928;28;20052;-71
2021/07/14 02:37:05;;;;;;;18.08;11.68;;;;;;;21.95;68.46;99821.03;5093912;28;20383;-71
2021/07/14 02:39:32;;;;;;;17.00;12.25;;;;;;;22.07;67.86;99824.03;5093336;28;20043;-73
2021/07/14 02:42:04;;;;;;;22.45;12.68;;;;;;;22.12;68.09;99814.38;5093700;28;20051;-75
2021/07/14 02:44:35;;;;;;;22.88;12.38;;;;;;;22.13;68.31;99825.97;5093648;28;20055;-73
2021/07/14 02:47:02;;;;;;;23.45;13.93;;;;;;;22.16;67.46;99822.06;5106752;28;20140;-75
2021/07/14 02:49:28;;;;;;;25.52;13.60;;;;;;;22.23;68.30;99820.28;5115238;28;20044;-72
2021/07/14 02:51:54;;;;;;;19.48;13.45;;;;;;;22.24;68.63;99827.34;5097157;28;20040;-75
2021/07/14 02:54:23;;;;;;;25.25;13.43;;;;;;;22.24;68.73;99828.19;5097095;28;20400;-72
2021/07/14 02:56:51;;;;;;;24.92;13.82;;;;;;;22.32;68.56;99826.38;5097249;28;20040;-72
2021/07/14 02:59:19;;;;;;;27.30;14.40;;;;;;;22.38;68.39;99831.91;5079479;28;20066;-74
2021/07/14 03:01:46;;;;;;;22.77;14.90;;;;;;;22.42;68.08;99819.69;5096300;28;20071;-72
2021/07/14 03:04:12;;;;;;;22.92;14.77;;;;;;;22.45;68.35;99827.41;5096407;28;20123;-74
2021/07/14 03:06:39;;;;;;;29.47;15.50;;;;;;;22.54;68.02;99832.66;5096025;28;20515;-74
2021/07/14 03:09:06;;;;;;;27.85;16.10;;;;;;;22.58;67.96;99826.69;5096772;28;20059;-73
2021/07/14 03:11:41;;;;;;;26.77;16.45;;;;;;;22.66;67.75;99831.09;5095696;28;20038;-72
2021/07/14 03:14:10;;;;;;;31.27;16.98;;;;;;;22.73;67.36;99829.31;5113403;28;20441;-74
2021/07/14 03:16:36;;;;;;;33.47;19.50;;;;;;;22.76;67.25;99828.91;5114115;28;20612;-72
2021/07/14 03:19:03;;;;;;;32.85;17.60;;;;;;;22.81;66.93;99824.81;5113650;28;20055;-73
2021/07/14 03:21:31;;;;;;;28.42;17.25;;;;;;;22.86;66.92;99822.38;5100341;28;20043;-71
2021/07/14 03:24:02;;;;;;;29.35;16.33;;;;;;;22.89;66.38;99821.97;5114685;28;20084;-73
2021/07/14 03:26:28;;;;;;;31.92;16.98;;;;;;;22.96;65.63;99825.53;5102110;28;20056;-74
2021/07/14 03:28:54;;;;;;;25.05;16.63;;;;;;;23.03;65.49;99826.44;5108878;28;20043;-73
2021/07/14 03:31:20;;;;;;;26.52;16.05;;;;;;;23.08;65.23;99826.69;5105126;28;20104;-72
2021/07/14 03:33:46;;;;;;;27.45;16.83;;;;;;;23.13;64.81;99827.94;5096055;28;20047;-75
2021/07/14 03:36:13;;;;;;;25.92;16.08;;;;;;;23.22;64.80;99827.63;5113078;28;20451;-72
2021/07/14 03:38:39;;;;;;;25.40;16.50;;;;;;;23.32;64.86;99826.47;5095863;28;20039;-73
2021/07/14 03:41:05;;;;;;;24.90;16.23;;;;;;;23.41;64.10;99828.81;5112972;28;20131;-74
2021/07/14 03:43:32;;;;;;;35.08;16.60;;;;;;;23.50;64.19;99821.38;5093429;28;20043;-73
2021/07/14 03:46:03;;;;;;;26.05;15.38;;;;;;;23.58;63.88;99825.78;5100077;28;20039;-75
2021/07/14 03:48:33;;;;;;;25.02;15.95;;;;;;;23.68;64.06;99828.94;5075147;28;20079;-72
2021/07/14 03:51:00;;;;;;;21.83;13.80;;;;;;;23.81;64.00;99819.22;5068033;28;20035;-75
2021/07/14 03:53:26;;;;;;;28.60;15.80;;;;;;;23.97;63.59;99816.19;5103622;28;20045;-72
2021/07/14 03:55:53;;;;;;;26.70;14.13;;;;;;;24.20;63.06;99823.09;5113027;28;20047;-74
2021/07/14 03:58:20;;;;;;;22.48;13.82;;;;;;;24.42;62.15;99826.47;5106843;28;20035;-72
2021/07/14 04:00:48;;;;;;;19.63;13.05;;;;;;;24.58;61.62;99824.44;5105684;28;20545;-72
2021/07/14 04:03:21;;;;;;;27.92;15.23;;;;;;;24.66;61.68;99822.38;5113867;28;20567;-72
2021/07/14 04:05:49;;;;;;;25.48;14.35;;;;;;;24.80;61.66;99825.06;5112306;28;20048;-73
2021/07/14 04:08:17;;;;;;;22.40;14.35;;;;;;;26.05;58.54;99826.06;5112904;28;20055;-77
2021/07/14 04:10:46;;;;;;;27.40;14.80;;;;;;;27.53;54.24;99812.19;5095566;28;20047;-73
2021/07/14 04:13:12;;;;;;;26.85;12.68;;;;;;;28.96;50.47;99818.94;5113979;28;20043;-74
2021/07/14 04:15:37;;;;;;;33.53;13.98;;;;;;;30.16;47.19;99816.59;5094796;28;20047;-77
2021/07/14 04:18:05;;;;;;;29.67;13.32;;;;;;;31.08;44.21;99818.41;5095309;28;20042;-75
2021/07/14 04:20:32;;;;;;;23.27;12.65;;;;;;;31.62;42.20;99810.38;5111739;28;20081;-74
2021/07/14 04:22:58;;;;;;;20.17;13.25;;;;;;;32.01;41.38;99817.69;5112020;28;20051;-74
2021/07/14 04:25:24;;;;;;;22.30;12.18;;;;;;;32.65;40.28;99816.13;5112159;28;20058;-76
2021/07/14 04:27:50;;;;;;;19.38;12.90;;;;;;;33.25;39.30;99810.53;5111577;28;20483;-76
2021/07/14 04:30:17;;;;;;;18.43;11.80;;;;;;;33.87;38.03;99805.31;5110878;28;20516;-76
2021/07/14 04:32:42;;;;;;;;;;;;;;;34.53;36.35;99809.28;5112583;28;20039;-74
2021/07/14 04:35:08;;;;;;;18.83;12.37;;;;;;;35.35;35.33;99810.28;5112425;28;20307;-73
2021/07/14 04:37:34;;;;;;;22.90;12.88;;;;;;;35.50;34.78;99810.25;5112407;28;20780;-76
2021/07/14 04:40:02;;;;;;;22.15;13.27;;;;;;;35.62;34.91;99816.25;5111990;28;20050;-77
2021/07/14 04:42:29;;;;;;;18.50;12.88;;;;;;;35.62;34.19;99819.00;5113110;28;20058;-75
2021/07/14 04:44:55;;;;;;;24.97;13.10;;;;;;;35.79;34.26;99812.28;5113160;28;20396;-74
2021/07/14 04:47:20;;;;;;;19.87;12.77;;;;;;;36.44;33.04;99808.63;5112701;28;20438;-74
2021/07/14 04:49:46;;;;;;;18.17;13.30;;;;;;;36.59;32.45;99808.50;5112945;28;20477;-76
2021/07/14 04:52:13;;;;;;;21.50;13.77;;;;;;;36.36;33.20;99815.53;5114601;28;20551;-77
2021/07/14 04:54:39;;;;;;;17.70;13.05;;;;;;;36.97;31.75;99807.88;5114160;28;20039;-75
2021/07/14 04:57:06;;;;;;;17.45;12.68;;;;;;;37.09;31.75;99813.00;5112977;28;20134;-76
2021/07/14 04:59:35;;;;;;;16.02;12.70;;;;;;;37.24;31.44;99807.31;5113016;28;20092;-75
2021/07/14 05:02:05;;;;;;;19.88;12.55;;;;;;;37.93;30.07;99810.91;5111859;28;20048;-76
2021/07/14 05:04:34;;;;;;;20.20;12.90;;;;;;;38.43;29.52;99811.25;5111635;28;20051;-76
2021/07/14 05:07:01;;;;;;;19.52;11.82;;;;;;;39.58;28.26;99819.09;5112946;28;20100;-77
2021/07/14 05:09:26;;;;;;;;;;;;;;;40.30;26.94;99820.28;5111804;28;20059;-75
2021/07/14 05:11:52;;;;;;;;;;;;;;;39.40;27.39;99810.59;5113057;28;20424;-74
2021/07/14 05:14:18;;;;;;;18.58;13.88;;;;;;;38.88;28.02;99824.59;5112950;28;19927;-75
2021/07/14 05:16:44;;;;;;;21.90;12.60;;;;;;;39.13;28.33;99808.63;5111293;28;20088;-75
2021/07/14 05:19:12;;;;;;;16.92;12.10;;;;;;;40.07;27.12;99811.94;5111679;28;20130;-76
2021/07/14 05:21:38;;;;;;;21.95;13.00;;;;;;;40.88;25.77;99812.19;5111198;28;20534;-74
2021/07/14 05:24:04;;;;;;;27.15;13.15;;;;;;;41.48;25.08;99810.00;5112582;28;20074;-80
2021/07/14 05:26:30;;;;;;;21.48;12.77;;;;;;;42.04;23.99;99805.50;5112346;28;20528;-76
2021/07/14 05:28:56;;;;;;;17.35;13.23;;;;;;;42.50;23.26;99807.94;5110734;28;20050;-74
2021/07/14 05:31:21;;;;;;;22.70;14.85;;;;;;;42.40;23.34;99811.03;5112409;28;20079;-76
2021/07/14 05:33:47;;;;;;;;;;;;;;;42.06;23.42;99807.13;5112545;28;20050;-75
2021/07/14 05:36:13;;;;;;;21.15;13.85;;;;;;;41.87;24.18;99805.50;5112248;28;20012;-74
2021/07/14 05:38:40;;;;;;;24.95;13.88;;;;;;;40.96;24.59;99805.03;5110570;28;20515;-78
2021/07/14 05:41:07;;;;;;;22.80;14.80;;;;;;;40.04;25.59;99809.81;5111306;28;20051;-79
2021/07/14 05:43:33;;;;;;;23.05;12.93;;;;;;;41.23;25.14;99809.56;5111323;28;20047;-75
2021/07/14 05:45:58;;;;;;;;;;;;;;;42.56;23.11;99803.81;5112520;28;20039;-79
2021/07/14 05:48:24;;;;;;;20.27;13.80;;;;;;;42.57;22.70;99805.47;5112708;28;19916;-76
2021/07/14 05:50:50;;;;;;;;;;;;;;;41.76;23.54;99809.72;5112682;28;20039;-77
2021/07/14 05:53:16;;;;;;;28.70;14.65;;;;;;;41.96;23.51;99808.28;5111930;28;19915;-75
2021/07/14 05:55:42;;;;;;;;;;;;;;;41.85;23.50;99805.03;5112284;28;20044;-76
2021/07/14 05:58:10;;;;;;;19.17;13.25;;;;;;;41.77;23.75;99805.78;5110773;28;20052;-75
2021/07/14 06:00:37;;;;;;;24.27;13.75;;;;;;;40.99;24.75;99804.41;5111883;28;20134;-75
2021/07/14 06:03:04;;;;;;;22.67;14.55;;;;;;;41.18;24.35;99812.50;5111972;28;20043;-74
2021/07/14 06:05:30;;;;;;;20.35;13.98;;;;;;;41.44;24.03;99807.06;5093848;28;20565;-76
2021/07/14 06:07:56;;;;;;;;;;;;;;;41.04;24.66;99813.44;5110785;28;20051;-76
2021/07/14 06:10:21;;;;;;;17.63;13.65;;;;;;;41.46;23.45;99801.16;5112163;28;19958;-74
2021/07/14 06:12:47;;;;;;;21.40;13.98;;;;;;;40.70;24.71;99803.78;5111956;28;20052;-75
2021/07/14 06:15:13;;;;;;;21.50;13.85;;;;;;;40.63;25.01;99802.56;5111319;28;20052;-76
2021/07/14 06:17:39;;;;;;;19.30;13.40;;;;;;;40.80;24.66;99796.31;5111841;28;20048;-72
2021/07/14 06:20:06;;;;;;;20.85;14.65;;;;;;;40.87;24.09;99802.22;5111875;28;20044;-76
2021/07/14 06:22:32;;;;;;;20.77;13.05;;;;;;;41.28;24.01;99787.22;5115296;28;20044;-75
2021/07/14 06:24:58;;;;;;;;;;;;;;;41.06;24.24;99793.66;5115057;28;20543;-73
2021/07/14 06:27:24;;;;;;;20.95;13.13;;;;;;;41.80;23.56;99782.91;5115865;28;20462;-76
2021/07/14 06:29:49;;;;;;;17.42;13.68;;;;;;;42.21;22.80;99792.75;5114401;28;20040;-75
2021/07/14 06:32:15;;;;;;;23.60;13.57;;;;;;;42.67;21.74;99790.34;5115956;28;20039;-73
2021/07/14 06:34:41;;;;;;;;;;;;;;;43.78;20.17;99790.47;5115975;28;20039;-75
2021/07/14 06:37:08;;;;;;;17.67;12.65;;;;;;;43.60;20.38;99784.25;5115532;28;20524;-75
2021/07/14 06:39:33;;;;;;;21.60;12.10;;;;;;;44.05;19.73;99789.13;5115736;28;20043;-72
2021/07/14 06:42:00;;;;;;;17.70;12.55;;;;;;;44.36;19.61;99787.06;5115390;28;20051;-74
2021/07/14 06:44:26;;;;;;;15.93;12.40;;;;;;;45.46;18.44;99785.53;5115759;28;20468;-76
2021/07/14 06:46:52;;;;;;;18.80;11.85;;;;;;;46.83;16.86;99785.81;5115341;28;20507;-73
2021/07/14 06:49:18;;;;;;;17.95;12.90;;;;;;;46.00;17.98;99777.97;5115354;28;20043;-76
2021/07/14 06:51:44;;;;;;;16.60;12.48;;;;;;;45.11;18.74;99774.84;5115328;28;20619;-77
2021/07/14 06:54:09;;;;;;;18.67;12.65;;;;;;;44.88;18.84;99769.75;5115574;28;20039;-75
2021/07/14 06:56:36;;;;;;;22.40;11.30;;;;;;;46.57;16.99;99772.31;5114301;28;20089;-76
2021/07/14 06:59:02;;;;;;;17.55;10.60;;;;;;;47.21;14.93;99777.91;5115231;28;20130;-72
2021/07/14 07:01:27;;;;;;;16.65;11.15;;;;;;;47.17;15.88;99771.44;5114922;28;20456;-74
2021/07/14 07:03:53;;;;;;;20.05;10.98;;;;;;;48.30;15.20;99776.25;5113699;28;20073;-75
2021/07/14 07:06:19;;;;;;;14.98;11.95;;;;;;;48.00;15.13;99776.84;5114875;28;20059;-77
2021/07/14 07:08:45;;;;;;;19.20;13.35;;;;;;;46.86;16.03;99781.47;5115002;28;20055;-76
2021/07/14 07:11:10;;;;;;;20.55;12.90;;;;;;;44.86;18.45;99772.06;5115395;28;20488;-77
2021/07/14 07:13:36;;;;;;;29.63;12.77;;;;;;;45.45;18.32;99764.38;5115196;28;20519;-79
2021/07/14 07:16:03;;;;;;;21.75;12.20;;;;;;;46.81;17.08;99772.19;5114546;28;20544;-75
2021/07/14 07:18:29;;;;;;;18.17;12.30;;;;;;;47.77;16.15;99773.94;5114703;28;20039;-77
2021/07/14 07:20:59;;;;;;;17.42;11.98;;;;;;;47.43;16.02;99770.81;5114457;27;20043;-78
2021/07/14 07:23:24;;;;;;;16.88;12.10;;;;;;;46.90;16.83;99769.19;5114776;28;20381;-72
2021/07/14 07:25:52;;;;;;;16.80;12.52;;;;;;;45.35;18.09;99770.41;5114653;28;20050;-78
2021/07/14 07:28:20;;;;;;;20.30;11.95;;;;;;;45.42;17.93;99767.84;5113584;28;20081;-78
2021/07/14 07:30:46;;;;;;;20.38;11.98;;;;;;;45.19;17.90;99761.94;5114234;28;20035;-77
2021/07/14 07:33:12;;;;;;;19.10;11.20;;;;;;;46.58;16.21;99763.56;5114237;28;20119;-75
2021/07/14 07:35:38;;;;;;;15.15;10.90;;;;;;;45.97;15.74;99764.72;5096521;28;20044;-72
2021/07/14 07:38:05;;;;;;;14.77;10.88;;;;;;;47.16;14.78;99770.63;5113127;28;20036;-78
2021/07/14 07:40:31;;;;;;;15.40;10.63;;;;;;;46.54;15.58;99767.47;5113196;28;20044;-75
2021/07/14 07:42:57;;;;;;;15.07;11.25;;;;;;;46.57;15.23;99773.13;5114191;28;20416;-75
2021/07/14 07:45:22;;;;;;;14.60;10.88;;;;;;;47.78;14.84;99759.59;5114541;28;20568;-79
2021/07/14 07:47:48;;;;;;;17.52;11.18;;;;;;;48.32;13.76;99768.28;5114191;28;20032;-80
2021/07/14 07:50:14;;;;;;;14.02;10.38;;;;;;;48.71;13.88;99759.72;5114344;28;20458;-74
2021/07/14 07:52:40;;;;;;;18.90;11.98;;;;;;;49.53;13.20;99752.94;5114293;28;20507;-74
2021/07/14 07:55:10;;;;;;;15.27;11.48;;;;;;;48.62;14.11;99756.38;5114642;28;20057;-77
2021/07/14 07:57:37;;;;;;;14.10;12.30;;;;;;;48.52;14.30;99757.00;5114336;28;20132;-74
2021/07/14 08:00:16;;;;;;;18.90;12.65;;;;;;;47.83;14.83;99763.25;5113865;28;20077;-78
2021/07/14 08:02:42;;;;;;;16.42;12.18;;;;;;;46.70;15.66;99757.09;5112955;28;20108;-75
2021/07/14 08:05:08;;;;;;;19.30;12.60;;;;;;;47.59;14.55;99753.97;5115227;28;20051;-75
2021/07/14 08:07:35;;;;;;;16.65;11.93;;;;;;;47.30;15.10;99744.91;5114163;28;20043;-80
2021/07/14 08:10:01;;;;;;;17.85;12.70;;;;;;;46.65;15.50;99749.75;5114253;28;20074;-75
2021/07/14 08:12:27;;;;;;;19.30;11.13;;;;;;;47.56;15.38;99749.13;5113172;28;20043;-78
2021/07/14 08:14:52;;;;;;;13.45;10.50;;;;;;;47.25;15.32;99742.41;5113418;28;20042;-76
2021/07/14 08:17:18;;;;;;;15.35;12.45;;;;;;;45.52;16.36;99736.63;5113759;28;20052;-75
2021/07/14 08:19:44;;;;;;;16.92;11.48;;;;;;;44.15;17.68;99742.47;5112253;28;20545;-74
2021/07/14 08:22:10;;;;;;;15.02;11.75;;;;;;;43.86;17.88;99731.06;5112258;28;20039;-74
2021/07/14 08:24:35;;;;;;;16.65;11.73;;;;;;;42.07;19.65;99730.94;5113684;28;20036;-75
2021/07/14 08:27:01;;;;;;;14.88;11.07;;;;;;;41.40;20.69;99731.88;5113585;28;20043;-78
2021/07/14 08:29:27;;;;;;;16.98;11.48;;;;;;;40.61;21.32;99728.03;5112181;28;20054;-73
2021/07/14 08:31:54;;;;;;;;;;;;;;;41.05;20.81;99734.59;5112279;28;20044;-76
2021/07/14 08:34:20;;;;;;;13.50;11.25;;;;;;;39.36;22.74;99734.06;5095377;28;19923;-75
2021/07/14 08:36:45;;;;;;;;;;;;;;;38.91;23.43;99729.16;5113685;28;20047;-76
2021/07/14 08:39:12;;;;;;;18.13;11.10;;;;;;;38.49;24.01;99732.66;5113295;28;19972;-75
2021/07/14 08:41:42;;;;;;;13.88;10.88;;;;;;;37.54;25.52;99728.03;5111890;28;20047;-75
2021/07/14 08:44:08;;;;;;;13.20;10.55;;;;;;;37.19;25.80;99723.81;5111158;28;20044;-75
2021/07/14 08:46:36;;;;;;;15.32;10.90;;;;;;;37.56;25.44;99727.72;5113500;28;20369;-74
2021/07/14 08:49:05;;;;;;;14.63;11.13;;;;;;;37.80;24.73;99719.38;5111914;28;20035;-78
2021/07/14 08:51:36;;;;;;;18.83;11.80;;;;;;;39.35;22.37;99715.81;5113319;28;20043;-76
2021/07/14 08:54:03;;;;;;;11.35;9.20;;;;;;;39.07;21.96;99727.72;5112192;28;20043;-79
2021/07/14 08:56:29;;;;;;;15.40;10.18;;;;;;;38.85;22.36;99713.78;5112103;28;20040;-78
2021/07/14 08:58:55;;;;;;;18.98;11.57;;;;;;;38.82;22.79;99718.78;5112773;28;20188;-75
2021/07/14 09:01:20;;;;;;;16.75;11.93;;;;;;;40.09;21.35;99709.09;5095041;28;20043;-77
2021/07/14 09:03:46;;;;;;;17.85;11.48;;;;;;;39.59;21.63;99721.06;5113310;28;20043;-78
2021/07/14 09:06:12;;;;;;;18.48;11.40;;;;;;;40.67;20.97;99712.09;5113004;28;20047;-76
2021/07/14 09:08:38;;;;;;;12.95;10.75;;;;;;;42.45;18.92;99714.38;5112502;28;20056;-75
2021/07/14 09:11:05;;;;;;;;;;;;;;;43.21;17.76;99711.06;5113201;28;20100;-79
2021/07/14 09:13:33;;;;;;;16.60;10.55;;;;;;;42.41;18.93;99710.63;5111737;28;19920;-77
2021/07/14 09:15:59;;;;;;;16.35;11.10;;;;;;;41.98;18.38;99706.75;5094344;28;20050;-75
2021/07/14 09:18:26;;;;;;;;;;;;;;;42.35;18.54;99700.81;5113510;28;20097;-77
2021/07/14 09:20:52;;;;;;;13.15;9.80;;;;;;;42.81;17.87;99709.50;5111613;28;19927;-75
2021/07/14 09:23:21;;;;;;;11.60;10.10;;;;;;;42.55;17.27;99701.22;5112849;28;20048;-76
2021/07/14 09:25:49;;;;;;;11.40;9.85;;;;;;;42.71;17.30;99699.56;5111082;28;20039;-78
2021/07/14 09:28:20;;;;;;;14.73;11.63;;;;;;;43.53;16.66;99690.09;5113000;28;20051;-76
2021/07/14 09:30:48;;;;;;;16.15;11.52;;;;;;;44.46;16.01;99691.78;5112634;28;20104;-78
2021/07/14 09:33:16;;;;;;;16.27;9.95;;;;;;;46.01;14.84;99685.34;5111683;28;20043;-75
2021/07/14 09:35:52;;;;;;;11.40;10.20;;;;;;;46.30;14.51;99693.66;5112757;28;20044;-81
2021/07/14 09:38:29;;;;;;;15.85;10.00;;;;;;;45.65;14.83;99686.31;5112721;28;20404;-79
2021/07/14 09:40:59;;;;;;;10.70;9.38;;;;;;;44.61;14.91;99692.25;5111386;28;20096;-80
2021/07/14 09:43:37;;;;;;;15.80;9.38;;;;;;;44.86;14.45;99685.53;5111529;28;20044;-76
2021/07/14 09:46:10;;;;;;;13.63;10.65;;;;;;;43.69;15.08;99683.88;5112684;28;20043;-80
2021/07/14 09:48:42;;;;;;;12.68;9.55;;;;;;;43.22;15.95;99684.88;5111347;28;20403;-81
2021/07/14 09:51:12;;;;;;;14.88;9.32;;;;;;;42.84;16.08;99681.00;5094423;28;20584;-80
2021/07/14 09:53:44;;;;;;;15.23;10.55;;;;;;;42.57;16.28;99683.09;5111394;28;20487;-77
2021/07/14 09:56:12;;;;;;;12.23;10.40;;;;;;;42.43;15.98;99685.25;5113684;28;20052;-78
2021/07/14 09:58:37;;;;;;;11.90;10.25;;;;;;;42.35;16.22;99678.59;5115469;28;20079;-80
2021/07/14 10:01:05;;;;;;;12.65;8.88;;;;;;;42.87;16.09;99672.00;5114125;28;20071;-77
2021/07/14 10:03:38;;;;;;;15.90;11.20;;;;;;;43.72;15.31;99672.03;5116326;28;20036;-78
2021/07/14 10:06:15;;;;;;;11.00;8.90;;;;;;;43.12;15.48;99669.38;5115891;28;20043;-76
2021/07/14 10:08:45;;;;;;;11.60;9.10;;;;;;;43.08;15.63;99668.41;5098175;28;20047;-78
2021/07/14 10:11:17;;;;;;;9.63;8.50;;;;;;;43.24;14.98;99663.88;5116540;28;20492;-77
2021/07/14 10:14:02;;;;;;;11.13;9.77;;;;;;;41.84;16.59;99656.09;5116705;28;20090;-82
2021/07/14 10:16:31;;;;;;;15.77;9.98;;;;;;;40.41;18.64;99660.88;5116478;28;20051;-80
2021/07/14 10:19:10;;;;;;;17.90;10.15;;;;;;;38.72;19.98;99660.91;5098270;28;20126;-78
2021/07/14 10:21:40;;;;;;;16.20;10.50;;;;;;;38.23;21.03;99659.59;5065366;28;20044;-79
2021/07/14 10:24:10;;;;;;;14.50;10.30;;;;;;;38.44;21.15;99658.13;5098188;28;20553;-81
2021/07/14 10:26:38;;;;;;;31.17;13.85;;;;;;;39.54;20.06;99646.44;5116335;28;20043;-78
2021/07/14 10:29:05;;;;;;;18.17;11.07;;;;;;;40.68;19.45;99647.97;5097807;28;20134;-78
2021/07/14 10:31:32;;;;;;;13.05;10.63;;;;;;;41.03;18.61;99653.63;5116359;28;20047;-79
2021/07/14 10:33:58;;;;;;;13.95;9.32;;;;;;;40.69;18.47;99646.00;5097873;28;20054;-80
2021/07/14 10:36:30;;;;;;;12.65;9.55;;;;;;;40.60;18.54;99637.66;5116196;28;20561;-82
2021/07/14 10:39:00;;;;;;;14.18;9.00;;;;;;;41.04;18.20;99630.28;5116181;28;20044;-79
2021/07/14 10:41:27;;;;;;;10.98;9.00;;;;;;;41.22;18.21;99631.09;5116169;28;20467;-79
2021/07/14 10:43:55;;;;;;;14.00;8.85;;;;;;;40.59;18.12;99630.50;5116129;28;20067;-79
2021/07/14 10:46:23;;;;;;;12.32;10.23;;;;;;;39.95;18.66;99629.66;5097734;28;20418;-78
2021/07/14 10:48:53;;;;;;;12.43;8.63;;;;;;;39.87;18.92;99632.38;5097293;28;20048;-80
2021/07/14 10:51:20;;;;;;;10.13;8.60;;;;;;;39.96;18.64;99620.19;5097564;28;20040;-77
2021/07/14 10:53:50;;;;;;;13.45;8.70;;;;;;;39.22;19.67;99618.69;5097751;28;20043;-80
2021/07/14 10:56:16;;;;;;;14.57;8.60;;;;;;;38.61;20.12;99618.00;5097521;28;20039;-77
2021/07/14 10:58:43;;;;;;;12.85;8.43;;;;;;;38.54;20.49;99620.38;5115498;28;20100;-81
2021/07/14 11:01:09;;;;;;;12.60;8.52;;;;;;;38.82;19.91;99616.47;5097386;28;20051;-79
2021/07/14 11:03:43;;;;;;;12.02;8.43;;;;;;;38.73;20.58;99610.00;5097273;28;20468;-77
2021/07/14 11:06:11;;;;;;;14.10;8.63;;;;;;;38.22;20.97;99609.03;5115514;28;20130;-78
2021/07/14 11:08:44;;;;;;;12.75;8.40;;;;;;;38.87;19.98;99596.19;5115767;28;20056;-79
2021/07/14 11:11:15;;;;;;;12.07;8.48;;;;;;;38.68;19.84;99593.50;5115351;28;20040;-78
2021/07/14 11:13:42;;;;;;;9.43;8.27;;;;;;;38.08;19.86;99591.66;5115222;28;20066;-80
2021/07/14 11:16:44;;;;;;;16.80;8.45;;;;;;;38.16;20.10;99580.72;5097601;28;20043;-78
2021/07/14 11:19:17;;;;;;;11.98;8.75;;;;;;;38.33;21.15;99587.59;5052694;28;20485;-77
2021/07/14 11:21:52;;;;;;;11.93;8.85;;;;;;;38.09;20.93;99583.06;5054067;28;20053;-76
2021/07/14 11:24:36;;;;;;;14.05;8.23;;;;;;;38.08;21.16;99586.94;5036522;28;20090;-79
2021/07/14 11:27:29;;;;;;;13.52;8.55;;;;;;;37.96;21.69;99584.69;5051654;28;20049;-77
2021/07/14 11:30:25;;;;;;;13.65;8.23;;;;;;;37.55;21.51;99580.66;5024599;28;20049;-77
2021/07/14 11:32:56;;;;;;;14.20;8.48;;;;;;;37.53;21.74;99571.84;5052362;28;20482;-78
2021/07/14 11:35:37;;;;;;;11.23;7.82;;;;;;;37.49;21.93;99579.09;5052042;28;20117;-75